Weather observations for the past three days for
Brookings, Brookings Airport
Imperial (Metric)
Date Time (pdt) Wind (mph) Vis. (mi.) Weather Sky Cond. Temperature (ºF) Relative Humidity Wind Chill (°F) Heat Index (°F) Pressure Precipitation (in)
Air Dwpt 6 hour altimeter (in) sea level (mb) 1 hr 3 hr 6 hr
Max. Min.
04 15:56 Vrbl 3 10.00 Overcast FEW017 OVC024 57.9 50 75% 30 1015.7
04 14:56 SE 7 10.00 Overcast SCT015 OVC024 57.9 50 75% 30.01 1016.1
04 13:56 S 7 10.00 Overcast BKN011 OVC024 57 51.1 81% 30.01 1016.4
04 12:56 S 7 10.00 Overcast OVC009 55.9 51.1 84% 30.02 1016.5
04 11:56 S 6 10.00 Overcast OVC007 55 52 90% 30.02 1016.7
04 10:56 Vrbl 5 10.00 Overcast OVC002 53.1 52 53.1 51.1 96% 30.02 1016.6
04 09:56 SE 7 7.00 Overcast OVC002 52 52 100% 30.01 1016.2
04 08:56 Vrbl 3 4.00 Fog/Mist OVC004 52 52 100% 30 1016.0
04 07:56 Vrbl 3 2.00 Fog/Mist OVC004 52 51.1 97% 29.99 1015.7
04 06:56 SE 3 10.00 Overcast OVC004 51.1 51.1 100% 29.98 1015.2
04 05:56 Calm 7.00 Overcast BKN010 OVC015 51.1 51.1 100% 29.96 1014.7
04 04:56 Calm 10.00 Overcast OVC012 51.1 51.1 52 51.1 100% 29.96 1014.7 0.01
04 03:56 Calm 10.00 Light Rain OVC012 51.1 51.1 100% 29.96 1014.7
04 02:56 Calm 10.00 Overcast SCT010 BKN022 OVC027 51.1 51.1 100% 29.97 1014.9
04 01:56 SE 5 4.00 Fog/Mist OVC002 51.1 51.1 100% 29.98 1015.2 0.01 0.01
04 00:56 SE 5 1.75 Light Rain Fog/Mist OVC002 51.1 51.1 100% 30 1015.9
03 23:56 Vrbl 6 2.50 Light Rain Fog/Mist OVC004 51.1 51.1 100% 29.99 1015.9
03 22:56 Vrbl 3 7.00 Overcast OVC002 51.1 51.1 54 51.1 100% 29.98 1015.4 0.02
03 21:56 SE 5 4.00 Fog/Mist OVC002 51.1 51.1 100% 29.97 1015.2
03 20:56 Vrbl 3 6.00 Fog/Mist OVC002 51.1 51.1 100% 29.94 1014.1
03 19:56 S 7 1.75 Light Rain Fog/Mist OVC002 52 51.1 97% 29.92 1013.3 0.02 0.02
03 18:51 SE 7 7.00 Thunderstorm in Vicinity Light Rain BKN004 OVC011 52 51.1 97% 29.92 1013.5
03 17:56 S 10 10.00 Overcast OVC008 53.1 50 89% 29.92 1013.3
03 16:56 S 8 10.00 Overcast OVC004 52 50 53.1 51.1 93% 29.91 1013.2
03 15:56 S 7 10.00 Overcast OVC002 52 50 93% 29.92 1013.4
03 14:56 S 7 10.00 Overcast OVC004 53.1 50 89% 29.9 1012.6
03 13:56 SE 5 7.00 Overcast OVC002 51.1 50 96% 29.9 1012.8
03 12:56 Vrbl 3 5.00 Fog/Mist OVC002 52 51.1 97% 29.89 1012.3
03 11:56 Vrbl 5 1.75 Light Rain Fog/Mist OVC002 51.1 51.1 100% 29.91 1012.9
03 10:56 S 7 0.50 Light Rain Fog OVC002 51.1 51.1 51.1 48.9 100% 29.9 1012.6
03 09:56 S 3 0.75 Fog/Mist OVC002 50 50 100% 29.89 1012.4
03 08:56 S 3 0.50 Fog OVC002 50 50 100% 29.88 1012.0
03 07:56 E 3 0.25 Fog OVC002 50 50 100% 29.86 1011.3
03 06:56 E 3 0.25 Fog OVC002 50 50 100% 29.85 1011.0
03 05:56 Calm 0.50 Fog OVC002 50 50 100% 29.85 1010.9
03 04:56 Calm 2.50 Fog/Mist OVC002 48.9 48.9 52 48.9 100% 29.86 1011.1
03 03:56 Vrbl 3 1.75 Fog/Mist OVC002 50 48.9 96% 29.86 1011.1
03 02:56 Vrbl 3 5.00 Fog/Mist OVC004 50 48.9 96% 29.87 1011.4
03 01:56 SE 5 6.00 Fog/Mist OVC004 51.1 50 96% 29.88 1011.7
03 00:56 SE 8 8.00 Overcast OVC004 51.1 50 96% 29.89 1012.2
02 23:56 SE 3 7.00 Overcast OVC004 51.1 50 96% 29.89 1012.1
02 22:56 SE 6 9.00 Overcast OVC004 52 50 55 51.1 93% 29.89 1012.2
02 21:56 SE 6 10.00 Fair CLR 51.1 48.9 92% 29.89 1012.2
02 20:56 Calm 10.00 Partly Cloudy SCT090 52 48.9 89% 29.88 1011.8
02 19:56 SE 6 10.00 A Few Clouds FEW010 54 48.9 83% 29.87 1011.5
02 18:56 SE 7 10.00 Overcast OVC010 54 48.9 83% 29.87 1011.5
02 17:56 SE 8 10.00 Overcast OVC010 55 48.9 80% 29.86 1011.2
02 16:56 SE 6 10.00 Mostly Cloudy BKN012 55 48.9 57 52 80% 29.86 1011.3
02 15:56 Vrbl 3 10.00 A Few Clouds FEW012 57 50 78% 29.87 1011.6
02 14:56 Vrbl 5 10.00 Mostly Cloudy BKN010 55.9 50 81% 29.9 1012.4
02 13:56 SW 6 10.00 Overcast OVC010 55.9 50 81% 29.91 1012.9
02 12:56 Vrbl 5 10.00 Overcast OVC010 54 48.9 83% 29.93 1013.7
02 11:56 Calm 9.00 Overcast OVC008 52 48.9 89% 29.94 1013.9
02 10:56 Calm 10.00 Overcast OVC006 52 48.9 52 50 89% 29.94 1013.8
02 09:56 W 3 9.00 Overcast OVC006 52 48.9 89% 29.93 1013.5
02 08:56 Calm 6.00 Fog/Mist OVC006 51.1 48.9 92% 29.93 1013.7
02 07:56 Calm 5.00 Fog/Mist OVC004 50 48.9 96% 29.94 1014.0
02 06:56 W 3 3.00 Fog/Mist OVC006 50 50 100% 29.93 1013.7
02 05:56 S 3 4.00 Fog/Mist OVC004 50 48.9 96% 29.94 1014.0
02 04:56 S 5 6.00 Fog/Mist OVC006 51.1 48.9 51.1 50 92% 29.95 1014.2
02 03:56 Calm 8.00 Overcast OVC008 51.1 48.9 92% 29.95 1014.1
02 02:56 Calm 10.00 Overcast OVC010 51.1 48.9 92% 29.96 1014.5
02 01:56 Calm 10.00 Overcast OVC010 51.1 48.9 92% 29.98 1015.2
02 00:56 Calm 10.00 Overcast OVC010 51.1 48.9 92% 29.99 1015.5
01 23:56 Calm 10.00 Mostly Cloudy BKN010 50 48 93% 29.99 1015.8
01 22:56 Calm 10.00 Fair CLR 51.1 48 60.1 51.1 89% 30.01 1016.3
01 21:56 Calm 10.00 Fair CLR 51.1 48 89% 30.02 1016.6
01 20:56 Calm 10.00 Partly Cloudy SCT013 52 48.9 89% 30.01 1016.4
01 19:56 Calm 10.00 Fair CLR 54 48.9 83% 30 1015.9
01 18:56 SE 7 10.00 Partly Cloudy SCT015 55.9 48.9 77% 30 1015.9
01 17:56 Vrbl 7 10.00 Fair CLR 57 48.9 74% 30 1016.0
01 16:56 SE 9 10.00 Fair CLR 60.1 50 61 53.1 70% 30 1016.0
Date Time (pdt) Wind (mph) Vis. (mi.) Weather Sky Cond. Air Dwpt Max. Min. Relative Humidity Wind Chill (°F) Heat Index (°F) altimeter (in) sea level (mb) 1 hr 3 hr 6 hr
6 hour
Temperature (ºF) Pressure Precipitation (in)